KAXS

Altus / Quartz Mountain Regional Airport

Altus, Oklahoma, USA
METAR KAXS 221815Z AUTO 35016G19KT 10SM BKN041 17/05 A3015 RMK AO2 T01710050
Observed Flight Rules
Apr-22 @ 18:15 UTC (9 minutes ago) Visual Flight Rules
Wind Visibility Clouds
350° at 16 knots
 Gusting to 19 knots
10 miles
  • Broken at 4,100' AGL
Temperatures Readings
Current 17°C / 63°F
Dewpoint 5°C / 41°F
Humidity 45%
Altimeter 30.15" Hg
Pressure 1021 hPa
Elevation 437
METAR KAXS 221815Z AUTO 35016G19KT 10SM BKN041 17/05 A3015 RMK AO2 T01710050
Observed Flight Rules
Apr-22 @ 18:15 UTC
(9 minutes ago)
VFR
Wind Visibility
350° at 16 knots
 Gusting to 19 knots
10 miles
Clouds
  • Broken at 4,100' AGL
Temperature Dewpoint
17°C / 63°F 5°C / 41°F
Humidity Altimeter Pressure
45% 30.15" Hg 1021 hPa